createdAt,value
2018-02-25T00:02:03.591Z,49.90
2018-02-25T00:04:31.057Z,50.20
2018-02-25T00:06:58.512Z,49.80
2018-02-25T00:09:25.972Z,49.80
2018-02-25T00:11:53.428Z,50.10
2018-02-25T00:14:20.880Z,50.10
2018-02-25T00:16:48.336Z,50.00
2018-02-25T00:19:15.872Z,50.20
2018-02-25T00:21:43.328Z,50.40
2018-02-25T00:24:10.788Z,50.00
2018-02-25T00:26:38.287Z,50.30
2018-02-25T00:29:05.763Z,50.40
2018-02-25T00:31:33.224Z,50.50
2018-02-25T00:34:00.682Z,50.60
2018-02-25T00:36:28.144Z,50.60
2018-02-25T00:38:55.600Z,50.30
2018-02-25T00:41:23.052Z,50.40
2018-02-25T00:43:51.278Z,50.40
2018-02-25T00:46:18.732Z,50.50
2018-02-25T00:48:46.186Z,50.30
2018-02-25T00:51:13.644Z,50.50
2018-02-25T00:53:41.099Z,50.60
2018-02-25T00:56:08.556Z,50.70
2018-02-25T00:58:36.016Z,50.70
2018-02-25T01:01:03.465Z,50.40
2018-02-25T01:03:30.915Z,50.90
2018-02-25T01:05:58.363Z,51.20
2018-02-25T01:08:25.822Z,50.90
2018-02-25T01:10:53.279Z,50.80
2018-02-25T01:13:20.736Z,50.60
2018-02-25T01:15:48.196Z,51.00
2018-02-25T01:18:15.648Z,51.00
2018-02-25T01:20:43.103Z,51.50
2018-02-25T01:23:10.564Z,51.80
2018-02-25T01:25:38.012Z,51.60
2018-02-25T01:28:05.475Z,51.80
2018-02-25T01:30:32.928Z,52.00
2018-02-25T01:33:00.396Z,51.90
2018-02-25T01:35:27.843Z,52.30
2018-02-25T01:37:55.296Z,52.30
2018-02-25T01:40:22.756Z,52.50
2018-02-25T01:42:50.203Z,52.50
2018-02-25T01:45:17.667Z,52.60
2018-02-25T01:47:45.119Z,52.60
2018-02-25T01:50:12.574Z,52.70
2018-02-25T01:52:40.033Z,52.70
2018-02-25T01:55:07.496Z,52.80
2018-02-25T01:57:34.943Z,53.10
2018-02-25T02:00:02.406Z,53.20
2018-02-25T02:02:29.856Z,53.20
2018-02-25T02:04:57.314Z,53.60
2018-02-25T02:07:24.767Z,53.60
2018-02-25T02:09:52.226Z,53.90
2018-02-25T02:12:19.680Z,53.60
2018-02-25T02:14:47.143Z,53.90
2018-02-25T02:17:14.595Z,54.00
2018-02-25T02:19:42.048Z,54.00
2018-02-25T02:22:09.504Z,53.90
2018-02-25T02:24:36.963Z,54.20
2018-02-25T02:27:04.414Z,54.50
2018-02-25T02:29:31.877Z,54.40
2018-02-25T02:31:59.327Z,54.50
2018-02-25T02:34:26.786Z,54.50
2018-02-25T02:36:54.242Z,54.20
2018-02-25T02:39:21.710Z,54.70
2018-02-25T02:41:49.174Z,54.50
2018-02-25T02:44:16.624Z,55.10
2018-02-25T02:46:44.076Z,54.80
2018-02-25T02:49:12.351Z,54.90
2018-02-25T02:51:39.808Z,55.20
2018-02-25T02:54:07.269Z,55.30
2018-02-25T02:56:34.723Z,55.40
2018-02-25T02:59:02.185Z,55.20
2018-02-25T03:01:29.632Z,55.10
2018-02-25T03:03:57.091Z,55.00
2018-02-25T03:06:24.535Z,54.90
2018-02-25T03:08:52.016Z,55.70
2018-02-25T03:11:20.228Z,55.20
2018-02-25T03:13:47.684Z,55.10
2018-02-25T03:16:15.146Z,55.30
2018-02-25T03:18:42.598Z,55.60
2018-02-25T03:21:10.057Z,55.50
2018-02-25T03:23:37.523Z,55.40
2018-02-25T03:26:04.993Z,55.40
2018-02-25T03:28:32.444Z,55.20
2018-02-25T03:30:59.904Z,55.20
2018-02-25T03:33:27.360Z,54.90
2018-02-25T03:35:54.823Z,55.40
2018-02-25T03:38:22.283Z,56.00
2018-02-25T03:40:49.748Z,55.50
2018-02-25T03:43:17.206Z,55.80
2018-02-25T03:45:44.660Z,55.70
2018-02-25T03:48:12.103Z,55.20
2018-02-25T03:50:39.563Z,55.20
2018-02-25T03:53:07.019Z,55.40
2018-02-25T03:55:34.476Z,55.40
2018-02-25T03:58:01.928Z,55.60
2018-02-25T04:00:29.387Z,56.10
2018-02-25T04:02:56.844Z,55.60
2018-02-25T04:05:24.300Z,55.60
2018-02-25T04:07:51.755Z,55.70
2018-02-25T04:10:19.211Z,55.40
2018-02-25T04:12:46.668Z,55.30
2018-02-25T04:15:14.131Z,55.50
2018-02-25T04:17:41.583Z,55.50
2018-02-25T04:20:09.048Z,55.50
2018-02-25T04:22:36.499Z,55.70
2018-02-25T04:25:03.955Z,55.40
2018-02-25T04:27:31.407Z,55.60
2018-02-25T04:29:58.872Z,55.80
2018-02-25T04:32:26.319Z,55.50
2018-02-25T04:34:53.780Z,55.50
2018-02-25T04:37:21.222Z,55.60
2018-02-25T04:39:48.678Z,55.60
2018-02-25T04:42:16.139Z,56.10
2018-02-25T04:44:43.595Z,55.80
2018-02-25T04:47:11.055Z,55.80
2018-02-25T04:49:38.508Z,55.90
2018-02-25T04:52:05.963Z,55.20
2018-02-25T04:54:33.419Z,55.30
2018-02-25T04:57:00.887Z,55.70
2018-02-25T04:59:28.336Z,55.70
2018-02-25T05:01:55.791Z,55.40
2018-02-25T05:04:23.243Z,55.70
2018-02-25T05:06:50.706Z,55.70
2018-02-25T05:09:18.159Z,55.70
2018-02-25T05:11:45.611Z,55.60
2018-02-25T05:14:13.056Z,55.70
2018-02-25T05:16:40.524Z,55.60
2018-02-25T05:19:07.981Z,55.40
2018-02-25T05:21:35.451Z,55.60
2018-02-25T05:24:02.903Z,55.90
2018-02-25T05:26:30.359Z,56.20
2018-02-25T05:28:57.819Z,55.90
2018-02-25T05:31:25.276Z,56.10
2018-02-25T05:33:52.728Z,56.00
2018-02-25T05:36:20.185Z,55.80
2018-02-25T05:38:47.648Z,56.00
2018-02-25T05:41:15.863Z,56.30
2018-02-25T05:43:43.318Z,55.90
2018-02-25T05:46:10.780Z,55.90
2018-02-25T05:48:38.232Z,56.30
2018-02-25T05:51:05.694Z,55.90
2018-02-25T05:53:33.911Z,56.50
2018-02-25T05:56:01.367Z,56.10
2018-02-25T05:58:28.823Z,56.20
2018-02-25T06:00:56.868Z,56.00
2018-02-25T06:03:24.324Z,56.70
2018-02-25T06:05:51.783Z,56.30
2018-02-25T06:08:19.236Z,56.70
2018-02-25T06:10:46.696Z,56.70
2018-02-25T06:13:14.138Z,56.60
2018-02-25T06:15:41.598Z,56.60
2018-02-25T06:18:09.060Z,56.40
2018-02-25T06:20:36.519Z,56.70
2018-02-25T06:23:04.015Z,56.50
2018-02-25T06:25:31.440Z,56.30
2018-02-25T06:27:58.901Z,55.90
2018-02-25T06:30:26.348Z,56.10
2018-02-25T06:32:53.804Z,55.70
2018-02-25T06:35:21.260Z,55.70
2018-02-25T06:37:48.728Z,55.40
2018-02-25T06:40:16.180Z,55.90
2018-02-25T06:42:43.635Z,55.60
2018-02-25T06:45:11.082Z,55.20
2018-02-25T06:47:38.543Z,55.20
2018-02-25T06:50:05.994Z,55.30
2018-02-25T06:52:33.464Z,55.10
2018-02-25T06:55:00.916Z,54.70
2018-02-25T06:57:28.370Z,54.70
2018-02-25T06:59:55.823Z,55.10
2018-02-25T07:02:23.292Z,54.60
2018-02-25T07:04:50.754Z,54.40
2018-02-25T07:07:18.212Z,54.30
2018-02-25T07:09:45.659Z,54.40
2018-02-25T07:12:13.115Z,54.00
2018-02-25T07:14:40.560Z,53.20
2018-02-25T07:17:08.019Z,53.10
2018-02-25T07:19:35.540Z,53.40
2018-02-25T07:22:02.543Z,52.80
2018-02-25T07:24:30.766Z,53.40
2018-02-25T07:26:57.786Z,52.70
2018-02-25T07:29:24.798Z,52.50
2018-02-25T07:31:51.802Z,51.90
2018-02-25T07:34:18.802Z,51.90
2018-02-25T07:36:46.585Z,52.20
2018-02-25T07:39:14.347Z,51.70
2018-02-25T07:41:41.370Z,51.60
2018-02-25T07:44:08.379Z,51.20
2018-02-25T07:46:35.390Z,51.20
2018-02-25T07:49:02.383Z,51.10
2018-02-25T07:51:29.657Z,50.30
2018-02-25T07:53:56.670Z,50.90
2018-02-25T07:56:23.695Z,50.80
2018-02-25T07:58:50.706Z,48.90
2018-02-25T08:01:18.471Z,49.30
2018-02-25T08:03:46.252Z,47.00
2018-02-25T08:06:13.245Z,47.00
2018-02-25T08:08:40.252Z,47.10
2018-02-25T08:11:07.258Z,47.20
2018-02-25T08:13:35.090Z,46.20
2018-02-25T08:16:02.058Z,45.50
2018-02-25T08:18:29.074Z,44.60
2018-02-25T08:20:56.203Z,43.70
2018-02-25T08:23:23.255Z,43.70
2018-02-25T08:25:50.750Z,42.60
2018-02-25T08:28:17.882Z,42.60
2018-02-25T08:30:44.895Z,42.30
2018-02-25T08:33:11.914Z,41.60
2018-02-25T08:35:39.679Z,41.80
2018-02-25T08:38:09.947Z,40.50
2018-02-25T08:40:37.403Z,40.50
2018-02-25T08:43:04.410Z,39.00
2018-02-25T08:45:32.636Z,39.10
2018-02-25T08:48:00.100Z,39.00
2018-02-25T08:50:27.564Z,37.50
2018-02-25T08:52:54.579Z,36.10
2018-02-25T08:55:22.056Z,35.90
2018-02-25T08:57:49.563Z,35.90
2018-02-25T09:00:17.022Z,36.30
2018-02-25T09:02:44.499Z,36.30
2018-02-25T09:05:11.505Z,36.40
2018-02-25T09:07:39.278Z,35.90
2018-02-25T09:10:07.052Z,36.20
2018-02-25T09:12:34.533Z,36.20
2018-02-25T09:15:01.963Z,35.50
2018-02-25T09:17:29.417Z,34.30
2018-02-25T09:19:56.859Z,34.10
2018-02-25T09:22:24.634Z,34.20
2018-02-25T09:24:52.092Z,34.10
2018-02-25T09:27:20.268Z,35.20
2018-02-25T09:29:47.295Z,35.20
2018-02-25T09:32:15.063Z,36.70
2018-02-25T09:34:42.850Z,38.10
2018-02-25T09:37:09.846Z,37.30
2018-02-25T09:39:36.861Z,37.90
2018-02-25T09:42:03.859Z,37.60
2018-02-25T09:44:31.638Z,38.00
2018-02-25T09:46:58.639Z,37.70
2018-02-25T09:49:25.734Z,38.40
2018-02-25T09:51:52.654Z,38.40
2018-02-25T09:54:20.491Z,37.60
2018-02-25T09:56:47.449Z,38.10
2018-02-25T09:59:14.458Z,37.40
2018-02-25T10:01:41.474Z,36.60
2018-02-25T10:04:08.935Z,35.90
2018-02-25T10:06:36.464Z,34.20
2018-02-25T10:09:04.716Z,34.00
2018-02-25T10:11:32.170Z,33.80
2018-02-25T10:13:59.647Z,33.30
2018-02-25T10:16:27.098Z,31.20
2018-02-25T10:18:54.575Z,30.50
2018-02-25T10:21:22.814Z,29.60
2018-02-25T10:23:51.174Z,29.70
2018-02-25T10:26:18.636Z,30.80
2018-02-25T10:28:46.100Z,30.30
2018-02-25T10:31:13.551Z,28.90
2018-02-25T10:33:41.011Z,29.20
2018-02-25T10:36:08.468Z,29.10
2018-02-25T10:38:35.923Z,29.40
2018-02-25T10:41:03.378Z,28.80
2018-02-25T10:43:30.836Z,27.90
2018-02-25T10:45:57.847Z,27.80
2018-02-25T10:48:25.305Z,29.10
2018-02-25T10:50:52.319Z,29.80
2018-02-25T10:53:20.540Z,28.20
2018-02-25T10:55:48.001Z,28.30
2018-02-25T10:58:15.447Z,28.20
2018-02-25T11:00:42.659Z,28.10
2018-02-25T11:03:10.427Z,28.10
2018-02-25T11:05:38.201Z,27.50
2018-02-25T11:08:05.968Z,27.80
2018-02-25T11:10:33.425Z,27.80
2018-02-25T11:13:00.427Z,28.30
2018-02-25T11:15:27.945Z,27.60
2018-02-25T11:17:55.331Z,27.00
2018-02-25T11:20:22.783Z,27.20
2018-02-25T11:22:50.243Z,26.80
2018-02-25T11:25:17.711Z,27.70
2018-02-25T11:27:45.155Z,26.70
2018-02-25T11:30:12.629Z,26.90
2018-02-25T11:32:40.076Z,26.00
2018-02-25T11:35:07.544Z,26.80
2018-02-25T11:37:35.011Z,26.00
2018-02-25T11:40:03.253Z,25.60
2018-02-25T11:42:30.708Z,25.80
2018-02-25T11:44:58.176Z,26.60
2018-02-25T11:47:25.619Z,24.60
2018-02-25T11:49:53.080Z,24.50
2018-02-25T11:52:20.535Z,24.20
2018-02-25T11:54:47.534Z,25.00
2018-02-25T11:57:14.990Z,24.70
2018-02-25T11:59:42.448Z,25.20
2018-02-25T12:02:09.446Z,25.20
2018-02-25T12:04:36.904Z,25.30
2018-02-25T12:07:04.359Z,24.40
2018-02-25T12:09:31.370Z,24.70
2018-02-25T12:11:58.562Z,24.40
2018-02-25T12:14:25.567Z,24.80
2018-02-25T12:16:53.035Z,25.50
2018-02-25T12:19:20.043Z,25.00
2018-02-25T12:21:47.492Z,24.40
2018-02-25T12:24:15.727Z,24.10
2018-02-25T12:26:43.175Z,24.10
2018-02-25T12:29:10.640Z,23.80
2018-02-25T12:31:38.096Z,24.30
2018-02-25T12:34:05.545Z,24.40
2018-02-25T12:36:33.003Z,23.90
2018-02-25T12:39:00.462Z,24.20
2018-02-25T12:41:27.931Z,24.00
2018-02-25T12:43:55.372Z,24.70
2018-02-25T12:46:22.379Z,24.20
2018-02-25T12:48:49.828Z,24.60
2018-02-25T12:51:16.831Z,24.40
2018-02-25T12:53:43.824Z,24.30
2018-02-25T12:56:10.860Z,24.20
2018-02-25T12:58:38.635Z,22.70
2018-02-25T13:01:06.085Z,22.70
2018-02-25T13:03:33.091Z,22.70
2018-02-25T13:06:00.118Z,21.40
2018-02-25T13:08:27.573Z,21.20
2018-02-25T13:10:54.600Z,21.20
2018-02-25T13:13:21.604Z,21.90
2018-02-25T13:15:49.374Z,22.40
2018-02-25T13:18:17.597Z,23.30
2018-02-25T13:20:45.066Z,22.80
2018-02-25T13:23:12.529Z,22.30
2018-02-25T13:25:39.983Z,22.20
2018-02-25T13:28:07.432Z,22.70
2018-02-25T13:30:34.895Z,23.60
2018-02-25T13:33:02.339Z,24.40
2018-02-25T13:35:29.810Z,23.40
2018-02-25T13:37:56.823Z,23.30
2018-02-25T13:40:23.827Z,23.60
2018-02-25T13:42:51.595Z,23.30
2018-02-25T13:45:19.367Z,22.60
2018-02-25T13:47:47.134Z,22.60
2018-02-25T13:50:14.142Z,22.80
2018-02-25T13:52:41.139Z,21.60
2018-02-25T13:55:08.143Z,21.30
2018-02-25T13:57:35.143Z,21.70
2018-02-25T14:00:02.927Z,20.70
2018-02-25T14:02:30.386Z,20.60
2018-02-25T14:04:57.840Z,21.40
2018-02-25T14:07:25.299Z,22.20
2018-02-25T14:09:52.306Z,20.90
2018-02-25T14:12:19.317Z,21.20
2018-02-25T14:14:46.327Z,20.60
2018-02-25T14:17:13.326Z,22.40
2018-02-25T14:19:41.091Z,27.40
2018-02-25T14:22:08.855Z,27.50
2018-02-25T14:24:36.621Z,25.90
2018-02-25T14:27:04.391Z,26.90
2018-02-25T14:29:31.398Z,27.10
2018-02-25T14:31:58.410Z,27.20
2018-02-25T14:34:26.166Z,25.50
2018-02-25T14:36:53.197Z,25.50
2018-02-25T14:39:20.192Z,27.70
2018-02-25T14:41:47.197Z,25.30
2018-02-25T14:44:14.205Z,24.50
2018-02-25T14:46:41.971Z,27.80
2018-02-25T14:49:09.755Z,26.40
2018-02-25T14:51:37.510Z,27.30
2018-02-25T14:54:04.514Z,27.40
2018-02-25T14:56:31.522Z,27.90
2018-02-25T14:58:58.531Z,27.60
2018-02-25T15:01:26.304Z,28.30
2018-02-25T15:03:54.082Z,27.30
2018-02-25T15:06:21.091Z,27.30
2018-02-25T15:08:48.110Z,27.60
2018-02-25T15:11:15.117Z,28.10
2018-02-25T15:13:42.130Z,28.50
2018-02-25T15:16:09.185Z,28.80
2018-02-25T15:18:36.953Z,29.30
2018-02-25T15:21:04.746Z,29.40
2018-02-25T15:23:31.743Z,29.30
2018-02-25T15:25:58.746Z,29.70
2018-02-25T15:28:25.764Z,30.30
2018-02-25T15:30:53.534Z,30.90
2018-02-25T15:33:20.547Z,31.10
2018-02-25T15:35:47.585Z,31.60
2018-02-25T15:38:14.567Z,31.30
2018-02-25T15:40:42.386Z,31.30
2018-02-25T15:43:09.356Z,31.50
2018-02-25T15:45:36.366Z,31.00
2018-02-25T15:48:03.387Z,31.30
2018-02-25T15:50:30.402Z,31.10
2018-02-25T15:52:58.179Z,31.90
2018-02-25T15:55:25.183Z,32.00
2018-02-25T15:57:52.189Z,32.20
2018-02-25T16:00:19.198Z,31.70
2018-02-25T16:02:46.978Z,32.30
2018-02-25T16:05:14.774Z,32.10
2018-02-25T16:07:41.771Z,32.40
2018-02-25T16:10:09.537Z,31.90
2018-02-25T16:12:37.312Z,32.00
2018-02-25T16:15:05.091Z,31.50
2018-02-25T16:17:32.111Z,31.50
2018-02-25T16:19:59.887Z,32.40
2018-02-25T16:22:27.666Z,32.40
2018-02-25T16:24:54.676Z,32.50
2018-02-25T16:27:21.691Z,32.00
2018-02-25T16:29:48.690Z,32.00
2018-02-25T16:32:15.703Z,32.10
2018-02-25T16:34:42.714Z,32.10
2018-02-25T16:37:09.727Z,32.10
2018-02-25T16:39:36.738Z,31.80
2018-02-25T16:42:03.758Z,31.80
2018-02-25T16:44:30.770Z,32.10
2018-02-25T16:46:57.788Z,32.20
2018-02-25T16:49:24.804Z,32.00
2018-02-25T16:51:51.803Z,31.60
2018-02-25T16:54:18.814Z,31.90
2018-02-25T16:56:45.815Z,32.30
2018-02-25T16:59:12.836Z,32.00
2018-02-25T17:01:40.601Z,32.20
2018-02-25T17:04:07.671Z,32.00
2018-02-25T17:06:34.672Z,32.10
2018-02-25T17:09:01.683Z,32.30
2018-02-25T17:11:28.691Z,32.00
2018-02-25T17:13:55.715Z,32.30
2018-02-25T17:16:23.478Z,31.50
2018-02-25T17:18:51.254Z,32.00
2018-02-25T17:21:19.023Z,32.10
2018-02-25T17:23:46.035Z,32.10
2018-02-25T17:26:13.056Z,31.80
2018-02-25T17:28:40.072Z,31.70
2018-02-25T17:31:07.700Z,31.70
2018-02-25T17:33:35.600Z,31.80
2018-02-25T17:36:02.620Z,31.60
2018-02-25T17:38:30.392Z,31.60
2018-02-25T17:40:58.164Z,31.60
2018-02-25T17:43:25.201Z,31.70
2018-02-25T17:45:52.966Z,31.70
2018-02-25T17:48:20.745Z,32.00
2018-02-25T17:50:47.856Z,32.00
2018-02-25T17:53:15.659Z,32.40
2018-02-25T17:55:42.758Z,32.40
2018-02-25T17:58:10.494Z,32.40
2018-02-25T18:00:37.499Z,32.40
2018-02-25T18:03:04.529Z,32.60
2018-02-25T18:05:32.316Z,32.90
2018-02-25T18:07:59.334Z,33.00
2018-02-25T18:10:27.111Z,33.90
2018-02-25T18:12:54.949Z,33.50
2018-02-25T18:15:22.020Z,33.40
2018-02-25T18:17:49.812Z,33.70
2018-02-25T18:20:16.857Z,33.50
2018-02-25T18:22:43.883Z,33.70
2018-02-25T18:25:11.679Z,34.10
2018-02-25T18:27:38.691Z,34.00
2018-02-25T18:30:05.722Z,34.10
2018-02-25T18:32:32.747Z,33.80
2018-02-25T18:34:59.796Z,34.20
2018-02-25T18:37:26.827Z,35.10
2018-02-25T18:39:53.838Z,36.00
2018-02-25T18:42:20.857Z,35.10
2018-02-25T18:44:47.876Z,36.30
2018-02-25T18:47:14.922Z,36.60
2018-02-25T18:49:42.595Z,36.30
2018-02-25T18:52:09.610Z,36.70
2018-02-25T18:54:36.654Z,36.40
2018-02-25T18:57:03.651Z,36.60
2018-02-25T18:59:31.459Z,36.10
2018-02-25T19:01:58.478Z,35.70
2018-02-25T19:04:26.270Z,37.20
2018-02-25T19:06:53.275Z,37.00
2018-02-25T19:09:21.058Z,39.70
2018-02-25T19:11:48.077Z,39.50
2018-02-25T19:14:15.085Z,40.30
2018-02-25T19:16:42.099Z,40.90
2018-02-25T19:19:09.103Z,41.90
2018-02-25T19:21:36.123Z,42.80
2018-02-25T19:24:03.122Z,43.80
2018-02-25T19:26:30.895Z,45.20
2018-02-25T19:28:57.903Z,45.00
2018-02-25T19:31:24.908Z,45.10
2018-02-25T19:33:51.919Z,45.90
2018-02-25T19:36:25.352Z,47.40
2018-02-25T19:38:58.033Z,47.00
2018-02-25T19:41:30.768Z,47.90
2018-02-25T19:43:58.546Z,48.50
2018-02-25T19:46:26.364Z,48.50
2018-02-25T19:48:53.363Z,47.60
2018-02-25T19:51:20.366Z,48.60
2018-02-25T19:53:47.374Z,48.70
2018-02-25T19:56:14.398Z,49.00
2018-02-25T19:58:41.402Z,49.40
2018-02-25T20:01:08.411Z,49.30
2018-02-25T20:03:36.195Z,49.60
2018-02-25T20:06:03.234Z,49.60
2018-02-25T20:08:30.273Z,50.00
2018-02-25T20:10:57.270Z,49.90
2018-02-25T20:13:25.039Z,51.60
2018-02-25T20:15:52.810Z,52.50
2018-02-25T20:18:20.583Z,52.70
2018-02-25T20:20:47.599Z,52.50
2018-02-25T20:23:14.623Z,52.20
2018-02-25T20:25:41.627Z,52.30
2018-02-25T20:28:08.638Z,52.90
2018-02-25T20:30:35.638Z,53.00
2018-02-25T20:33:02.707Z,53.00
2018-02-25T20:35:29.721Z,53.10
2018-02-25T20:37:56.720Z,53.40
2018-02-25T20:40:23.726Z,53.10
2018-02-25T20:42:50.722Z,52.50
2018-02-25T20:45:18.510Z,52.00
2018-02-25T20:47:45.531Z,51.70
2018-02-25T20:50:13.298Z,51.30
2018-02-25T20:52:41.074Z,51.10
2018-02-25T20:55:08.846Z,51.20
2018-02-25T20:57:35.858Z,50.90
2018-02-25T21:00:02.875Z,51.20
2018-02-25T21:02:29.874Z,51.00
2018-02-25T21:04:56.891Z,50.30
2018-02-25T21:07:23.885Z,49.20
2018-02-25T21:09:50.895Z,46.80
2018-02-25T21:12:18.664Z,47.90
2018-02-25T21:14:46.443Z,45.50
2018-02-25T21:17:13.452Z,45.20
2018-02-25T21:19:40.458Z,44.10
2018-02-25T21:22:07.458Z,42.60
2018-02-25T21:24:35.260Z,43.60
2018-02-25T21:27:02.271Z,43.30
2018-02-25T21:29:30.039Z,43.00
2018-02-25T21:31:57.819Z,41.60
2018-02-25T21:34:24.831Z,41.40
2018-02-25T21:36:51.843Z,41.20
2018-02-25T21:39:18.854Z,41.40
2018-02-25T21:41:45.866Z,40.20
2018-02-25T21:44:12.870Z,40.40
2018-02-25T21:46:39.874Z,41.20
2018-02-25T21:49:07.735Z,41.50
2018-02-25T21:51:34.703Z,41.00
2018-02-25T21:54:01.706Z,40.60
2018-02-25T21:56:44.499Z,40.10
2018-02-25T21:59:17.202Z,39.90
2018-02-25T22:02:01.967Z,39.80
2018-02-25T22:04:28.898Z,39.60
2018-02-25T22:06:55.915Z,39.50
2018-02-25T22:09:22.911Z,39.50
2018-02-25T22:11:50.687Z,40.70
2018-02-25T22:14:18.450Z,40.60
2018-02-25T22:16:46.223Z,40.60
2018-02-25T22:19:13.239Z,40.20
2018-02-25T22:21:40.262Z,40.60
2018-02-25T22:24:07.259Z,40.70
2018-02-25T22:26:34.275Z,40.90
2018-02-25T22:29:01.275Z,41.20
2018-02-25T22:31:28.278Z,41.10
2018-02-25T22:33:56.046Z,41.60
2018-02-25T22:36:23.828Z,41.70
2018-02-25T22:38:50.834Z,41.50
2018-02-25T22:41:17.834Z,41.30
2018-02-25T22:43:44.842Z,42.30
2018-02-25T22:46:12.621Z,42.20
2018-02-25T22:48:40.387Z,41.90
2018-02-25T22:51:07.404Z,41.50
2018-02-25T22:53:34.403Z,41.90
2018-02-25T22:56:01.411Z,41.10
2018-02-25T22:58:29.188Z,41.70
2018-02-25T23:00:56.958Z,41.00
2018-02-25T23:03:23.960Z,41.00
2018-02-25T23:05:50.970Z,41.30
2018-02-25T23:08:17.971Z,41.40
2018-02-25T23:10:45.747Z,40.90
2018-02-25T23:13:13.516Z,40.90
2018-02-25T23:15:40.530Z,40.50
2018-02-25T23:18:07.534Z,41.00
2018-02-25T23:20:34.535Z,40.90
2018-02-25T23:23:02.312Z,41.60
2018-02-25T23:25:30.079Z,41.60
2018-02-25T23:27:57.087Z,41.20
2018-02-25T23:30:24.086Z,41.00
2018-02-25T23:32:51.154Z,41.60
2018-02-25T23:35:18.871Z,41.90
2018-02-25T23:37:46.653Z,42.00
2018-02-25T23:40:13.655Z,41.60
2018-02-25T23:42:40.674Z,41.20
2018-02-25T23:45:07.679Z,41.60
2018-02-25T23:47:34.693Z,42.10
2018-02-25T23:50:01.700Z,42.10
2018-02-25T23:52:28.707Z,41.40
2018-02-25T23:54:56.479Z,42.60
2018-02-25T23:57:24.252Z,41.90
2018-02-25T23:59:51.259Z,41.50
